Amery, Wisconsin
Current Conditions -  °F | °C
As of 10:55 PM on Sunday 23 Nov 2014 (Local Time) from KRNH Reporting Station
Light Rain Light Rain  
Wind Chill: 28°   Ceiling: 500
Heat Index: 36°   Visibility: 5mi
Dew Point: 36°   Wind: 12mph
Humidity: 100%   Direction: 330°NNW
Pressure: 29.3"   Gusts: NA
Location:  45.31°N, 92.36°W
Report Text: KRNH 240455Z AUTO 33010KT 5SM -RA OVC005 02/02 A2930 RMK AO2 P0001 T00240024
Loading
Personal Weather Stations






























Interactive Weather Map New forecast layout! Learn more

10-Day Weather Forecast

Advertisements
Track Severe Weather on mobile